createdAt,value
2023-06-15T00:01:05.834Z,45.27
2023-06-15T00:03:33.398Z,44.23
2023-06-15T00:06:00.839Z,44.79
2023-06-15T00:08:28.269Z,44.57
2023-06-15T00:10:55.617Z,43.57
2023-06-15T00:13:22.779Z,45.48
2023-06-15T00:15:49.925Z,45.15
2023-06-15T00:18:18.637Z,44.32
2023-06-15T00:20:46.456Z,44.06
2023-06-15T00:23:13.767Z,43.21
2023-06-15T00:25:40.875Z,44.20
2023-06-15T00:29:04.094Z,43.76
2023-06-15T00:31:31.352Z,45.47
2023-06-15T00:33:58.642Z,46.43
2023-06-15T00:36:25.842Z,45.25
2023-06-15T00:38:52.992Z,45.35
2023-06-15T00:41:20.174Z,46.59
2023-06-15T00:43:47.331Z,46.19
2023-06-15T00:46:16.068Z,46.45
2023-06-15T00:48:43.450Z,47.16
2023-06-15T00:51:13.174Z,47.02
2023-06-15T00:53:40.384Z,47.12
2023-06-15T00:56:08.191Z,46.38
2023-06-15T00:58:36.828Z,47.76
2023-06-15T01:01:04.347Z,47.32
2023-06-15T01:03:32.361Z,47.85
2023-06-15T01:06:01.085Z,48.00
2023-06-15T01:08:28.949Z,47.52
2023-06-15T01:10:57.404Z,48.18
2023-06-15T01:13:24.684Z,46.77
2023-06-15T01:15:57.547Z,48.12
2023-06-15T01:18:26.970Z,48.20
2023-06-15T01:20:55.010Z,50.20
2023-06-15T01:23:52.002Z,49.46
2023-06-15T01:26:25.141Z,49.40
2023-06-15T01:28:54.104Z,48.15
2023-06-15T01:31:21.530Z,49.46
2023-06-15T01:33:51.877Z,49.20
2023-06-15T01:36:20.763Z,47.06
2023-06-15T01:38:53.435Z,48.63
2023-06-15T01:41:24.218Z,49.36
2023-06-15T01:43:52.832Z,47.56
2023-06-15T01:46:22.673Z,49.75
2023-06-15T01:48:50.958Z,49.62
2023-06-15T01:51:19.887Z,49.21
2023-06-15T01:53:47.200Z,49.39
2023-06-15T01:56:15.806Z,48.42
2023-06-15T01:58:42.957Z,50.04
2023-06-15T02:01:10.079Z,50.68
2023-06-15T02:03:37.324Z,49.26
2023-06-15T02:06:04.474Z,49.52
2023-06-15T02:08:31.710Z,49.17
2023-06-15T02:10:58.927Z,49.87
2023-06-15T02:13:26.154Z,48.57
2023-06-15T02:15:53.314Z,48.58
2023-06-15T02:18:20.540Z,48.90
2023-06-15T02:20:47.775Z,50.66
2023-06-15T02:23:15.074Z,48.05
2023-06-15T02:25:42.304Z,49.36
2023-06-15T02:28:09.520Z,50.21
2023-06-15T02:30:36.670Z,50.13
2023-06-15T02:33:05.409Z,50.75
2023-06-15T02:35:32.691Z,50.05
2023-06-15T02:37:59.852Z,51.38
2023-06-15T02:40:26.936Z,50.88
2023-06-15T02:42:56.191Z,51.03
2023-06-15T02:45:23.540Z,49.41
2023-06-15T02:47:50.780Z,51.04
2023-06-15T02:50:19.061Z,49.39
2023-06-15T02:52:46.856Z,50.61
2023-06-15T02:55:14.702Z,50.51
2023-06-15T02:57:42.756Z,51.48
2023-06-15T03:00:14.929Z,51.09
2023-06-15T03:02:51.363Z,52.13
2023-06-15T03:05:19.636Z,50.24
2023-06-15T03:07:47.616Z,50.86
2023-06-15T03:10:14.852Z,51.15
2023-06-15T03:12:42.034Z,50.82
2023-06-15T03:15:10.602Z,49.70
2023-06-15T03:17:37.822Z,49.46
2023-06-15T03:20:08.891Z,49.45
2023-06-15T03:22:36.428Z,51.50
2023-06-15T03:25:04.178Z,50.08
2023-06-15T03:27:33.775Z,49.68
2023-06-15T03:30:02.693Z,50.47
2023-06-15T03:32:30.398Z,49.92
2023-06-15T03:34:58.534Z,49.33
2023-06-15T03:37:26.083Z,49.52
2023-06-15T03:39:53.238Z,52.05
2023-06-15T03:42:20.576Z,52.93
2023-06-15T03:44:47.852Z,51.85
2023-06-15T03:47:15.489Z,51.16
2023-06-15T03:49:42.735Z,51.96
2023-06-15T03:52:09.920Z,51.76
2023-06-15T03:54:37.162Z,53.09
2023-06-15T03:57:04.671Z,53.54
2023-06-15T03:59:31.924Z,53.38
2023-06-15T04:01:59.316Z,53.11
2023-06-15T04:04:26.425Z,52.47
2023-06-15T04:06:58.887Z,50.99
2023-06-15T04:09:26.039Z,49.56
2023-06-15T04:11:54.358Z,51.68
2023-06-15T04:14:21.531Z,52.58
2023-06-15T04:16:48.685Z,50.47
2023-06-15T04:19:17.123Z,50.63
2023-06-15T04:21:44.900Z,48.41
2023-06-15T04:24:12.202Z,49.27
2023-06-15T04:26:43.017Z,50.67
2023-06-15T04:29:10.616Z,49.52
2023-06-15T04:31:41.163Z,48.69
2023-06-15T04:34:08.999Z,48.02
2023-06-15T04:36:40.196Z,50.33
2023-06-15T04:39:07.397Z,51.35
2023-06-15T04:41:36.372Z,51.24
2023-06-15T04:44:03.619Z,52.15
2023-06-15T04:46:30.996Z,52.74
2023-06-15T04:48:58.546Z,54.61
2023-06-15T04:51:27.584Z,54.43
2023-06-15T04:53:55.813Z,52.32
2023-06-15T04:56:23.850Z,53.54
2023-06-15T04:58:51.521Z,52.00
2023-06-15T05:01:18.661Z,52.41
2023-06-15T05:03:46.773Z,53.05
2023-06-15T05:06:14.238Z,51.08
2023-06-15T05:08:41.422Z,51.42
2023-06-15T05:11:08.594Z,51.49
2023-06-15T05:13:35.816Z,53.02
2023-06-15T05:16:03.106Z,52.60
2023-06-15T05:18:30.294Z,52.01
2023-06-15T05:20:57.665Z,53.93
2023-06-15T05:23:24.810Z,52.39
2023-06-15T05:25:52.708Z,53.22
2023-06-15T05:28:20.620Z,51.21
2023-06-15T05:30:47.780Z,51.80
2023-06-15T05:33:15.082Z,54.59
2023-06-15T05:35:42.322Z,53.88
2023-06-15T05:38:10.484Z,52.75
2023-06-15T05:40:37.859Z,52.09
2023-06-15T05:43:05.264Z,51.88
2023-06-15T05:45:32.406Z,53.97
2023-06-15T05:47:59.923Z,54.21
2023-06-15T05:50:27.044Z,50.15
2023-06-15T05:52:54.167Z,48.71
2023-06-15T05:55:24.682Z,51.79
2023-06-15T05:57:52.122Z,51.34
2023-06-15T06:00:20.131Z,48.30
2023-06-15T06:02:50.448Z,45.77
2023-06-15T06:05:17.908Z,44.07
2023-06-15T06:07:48.476Z,45.45
2023-06-15T06:10:19.827Z,48.92
2023-06-15T06:12:47.255Z,45.48
2023-06-15T06:15:16.807Z,46.27
2023-06-15T06:17:59.314Z,47.46
2023-06-15T06:20:30.759Z,48.28
2023-06-15T06:22:58.025Z,48.62
2023-06-15T06:25:25.580Z,47.19
2023-06-15T06:27:52.690Z,48.63
2023-06-15T06:30:19.933Z,46.17
2023-06-15T06:32:47.151Z,44.71
2023-06-15T06:35:14.646Z,43.45
2023-06-15T06:37:42.001Z,47.02
2023-06-15T06:40:10.079Z,46.52
2023-06-15T06:42:37.261Z,47.96
2023-06-15T06:45:05.088Z,46.52
2023-06-15T06:47:32.279Z,44.71
2023-06-15T06:50:02.292Z,44.02
2023-06-15T06:52:29.448Z,45.55
2023-06-15T06:54:56.602Z,49.14
2023-06-15T06:57:25.429Z,50.91
2023-06-15T06:59:54.432Z,49.25
2023-06-15T07:02:21.623Z,49.48
2023-06-15T07:04:49.483Z,48.96
2023-06-15T07:07:16.783Z,45.88
2023-06-15T07:09:43.954Z,45.15
2023-06-15T07:12:11.527Z,44.00
2023-06-15T07:14:38.738Z,44.08
2023-06-15T07:17:06.272Z,43.02
2023-06-15T07:19:33.420Z,43.59
2023-06-15T07:22:00.621Z,44.33
2023-06-15T07:24:29.227Z,43.95
2023-06-15T07:26:57.687Z,42.46
2023-06-15T07:29:26.059Z,43.84
2023-06-15T07:31:53.526Z,43.79
2023-06-15T07:34:20.811Z,43.84
2023-06-15T07:36:48.218Z,46.47
2023-06-15T07:39:15.557Z,46.76
2023-06-15T07:41:45.689Z,48.02
2023-06-15T07:44:13.677Z,48.22
2023-06-15T07:46:41.617Z,46.65
2023-06-15T07:49:08.952Z,46.34
2023-06-15T07:51:43.422Z,45.33
2023-06-15T07:54:18.640Z,44.45
2023-06-15T07:56:46.542Z,45.11
2023-06-15T07:59:15.436Z,45.46
2023-06-15T08:01:43.719Z,44.88
2023-06-15T08:04:11.135Z,45.76
2023-06-15T08:06:41.304Z,44.90
2023-06-15T08:09:08.485Z,43.81
2023-06-15T08:11:35.625Z,42.68
2023-06-15T08:14:02.942Z,44.43
2023-06-15T08:16:30.045Z,40.92
2023-06-15T08:18:57.190Z,43.61
2023-06-15T08:21:24.513Z,43.42
2023-06-15T08:23:52.080Z,42.41
2023-06-15T08:26:19.199Z,41.60
2023-06-15T08:28:54.196Z,42.85
2023-06-15T08:31:24.063Z,41.03
2023-06-15T08:33:51.352Z,41.55
2023-06-15T08:36:18.626Z,40.35
2023-06-15T08:38:46.080Z,40.62
2023-06-15T08:41:13.825Z,39.83
2023-06-15T08:43:46.492Z,41.33
2023-06-15T08:46:14.284Z,40.01
2023-06-15T08:48:44.262Z,40.84
2023-06-15T08:51:13.685Z,40.85
2023-06-15T08:53:49.131Z,39.79
2023-06-15T08:56:16.467Z,40.51
2023-06-15T08:58:50.763Z,39.54
2023-06-15T09:01:26.584Z,40.24
2023-06-15T09:03:56.366Z,36.96
2023-06-15T09:06:24.707Z,38.78
2023-06-15T09:08:55.268Z,40.32
2023-06-15T09:11:24.618Z,39.18
2023-06-15T09:13:52.210Z,40.16
2023-06-15T09:16:19.887Z,40.08
2023-06-15T09:18:54.210Z,40.86
2023-06-15T09:21:24.290Z,40.46
2023-06-15T09:23:51.854Z,40.93
2023-06-15T09:26:28.944Z,42.45
2023-06-15T09:28:58.542Z,42.68
2023-06-15T09:31:49.129Z,41.11
2023-06-15T09:34:16.292Z,41.60
2023-06-15T09:36:49.259Z,42.29
2023-06-15T09:39:24.574Z,40.51
2023-06-15T09:41:53.491Z,41.54
2023-06-15T09:44:24.532Z,41.97
2023-06-15T09:46:53.692Z,42.05
2023-06-15T09:49:27.934Z,44.13
2023-06-15T09:51:57.043Z,43.51
2023-06-15T09:54:31.858Z,43.09
2023-06-15T09:57:02.460Z,42.27
2023-06-15T09:59:29.794Z,42.31
2023-06-15T10:02:00.431Z,41.62
2023-06-15T10:04:33.045Z,40.71
2023-06-15T10:07:04.604Z,40.21
2023-06-15T10:09:46.684Z,41.33
2023-06-15T10:12:28.545Z,40.74
2023-06-15T10:15:10.259Z,40.56
2023-06-15T10:17:42.197Z,39.72
2023-06-15T10:20:18.906Z,38.52
2023-06-15T10:23:08.604Z,37.44
2023-06-15T10:25:37.455Z,39.17
2023-06-15T10:28:10.913Z,39.62
2023-06-15T10:31:08.681Z,38.79
2023-06-15T10:34:08.524Z,39.86
2023-06-15T10:36:52.921Z,39.94
2023-06-15T10:39:33.470Z,38.92
2023-06-15T10:42:06.393Z,38.14
2023-06-15T10:44:34.635Z,38.58
2023-06-15T10:47:21.231Z,37.31
2023-06-15T10:49:57.249Z,36.91
2023-06-15T10:52:34.184Z,37.95
2023-06-15T10:55:07.142Z,35.99
2023-06-15T10:57:37.281Z,35.81
2023-06-15T11:00:05.987Z,38.40
2023-06-15T11:02:33.037Z,34.38
2023-06-15T11:05:13.549Z,35.87
2023-06-15T11:07:48.386Z,37.94
2023-06-15T11:10:38.468Z,38.30
2023-06-15T11:13:07.148Z,36.96
2023-06-15T11:15:37.839Z,35.72
2023-06-15T11:18:18.756Z,36.73
2023-06-15T11:20:55.802Z,34.75
2023-06-15T11:23:25.410Z,33.01
2023-06-15T11:25:55.503Z,31.86
2023-06-15T11:28:37.611Z,31.85
2023-06-15T11:31:09.540Z,32.08
2023-06-15T11:33:43.637Z,31.34
2023-06-15T11:36:12.552Z,28.71
2023-06-15T11:38:39.783Z,28.75
2023-06-15T11:41:12.241Z,33.66
2023-06-15T11:43:50.449Z,28.61
2023-06-15T11:46:23.647Z,29.05
2023-06-15T11:48:57.275Z,27.48
2023-06-15T11:51:24.991Z,28.50
2023-06-15T11:53:54.585Z,32.16
2023-06-15T11:56:23.072Z,31.16
2023-06-15T11:58:51.444Z,30.80
2023-06-15T12:01:19.692Z,34.07
2023-06-15T12:06:22.964Z,36.55
2023-06-15T12:08:56.016Z,32.64
2023-06-15T12:11:27.156Z,32.38
2023-06-15T12:14:00.416Z,35.03
2023-06-15T12:16:27.985Z,36.27
2023-06-15T12:18:56.416Z,31.97
2023-06-15T12:21:23.768Z,32.02
2023-06-15T12:23:52.245Z,31.34
2023-06-15T12:26:21.753Z,31.25
2023-06-15T12:28:53.252Z,33.07
2023-06-15T12:31:20.370Z,34.19
2023-06-15T12:33:54.560Z,35.01
2023-06-15T12:36:23.610Z,33.88
2023-06-15T12:38:51.164Z,34.65
2023-06-15T12:41:19.469Z,34.04
2023-06-15T12:43:46.774Z,33.80
2023-06-15T12:46:14.250Z,32.76
2023-06-15T12:48:41.632Z,33.69
2023-06-15T12:51:08.774Z,32.36
2023-06-15T12:53:38.255Z,33.48
2023-06-15T12:56:06.909Z,32.06
2023-06-15T12:58:34.110Z,31.45
2023-06-15T13:01:01.603Z,34.07
2023-06-15T13:03:28.996Z,34.73
2023-06-15T13:05:56.327Z,33.51
2023-06-15T13:08:23.478Z,30.20
2023-06-15T13:10:50.652Z,32.81
2023-06-15T13:13:18.245Z,34.10
2023-06-15T13:15:46.543Z,33.17
2023-06-15T13:18:15.028Z,29.38
2023-06-15T13:20:42.328Z,27.82
2023-06-15T13:23:09.743Z,27.91
2023-06-15T13:25:36.940Z,28.23
2023-06-15T13:28:04.338Z,29.21
2023-06-15T13:30:31.468Z,29.44
2023-06-15T13:32:58.772Z,26.79
2023-06-15T13:35:26.022Z,28.48
2023-06-15T13:37:53.231Z,30.55
2023-06-15T13:40:22.773Z,30.74
2023-06-15T13:42:49.991Z,33.39
2023-06-15T13:45:19.094Z,34.23
2023-06-15T13:47:47.202Z,37.55
2023-06-15T13:50:18.365Z,40.44
2023-06-15T13:52:48.115Z,43.88
2023-06-15T13:55:17.693Z,45.27
2023-06-15T13:57:46.831Z,46.46
2023-06-15T14:00:15.836Z,50.51
2023-06-15T14:02:44.430Z,51.20
2023-06-15T14:05:13.794Z,50.63
2023-06-15T14:07:41.479Z,50.74
2023-06-15T14:10:10.048Z,51.64
2023-06-15T14:12:37.822Z,51.18
2023-06-15T14:15:07.827Z,49.75
2023-06-15T14:17:35.412Z,48.58
2023-06-15T14:20:03.771Z,49.90
2023-06-15T14:22:31.858Z,51.05
2023-06-15T14:24:59.369Z,49.00
2023-06-15T14:27:34.871Z,49.48
2023-06-15T14:30:02.282Z,48.71
2023-06-15T14:32:32.530Z,47.75
2023-06-15T14:35:02.208Z,48.64
2023-06-15T14:37:30.051Z,48.80
2023-06-15T14:39:57.392Z,47.97
2023-06-15T14:42:31.781Z,46.04
2023-06-15T14:44:59.243Z,46.88
2023-06-15T14:47:27.262Z,47.64
2023-06-15T14:49:54.737Z,47.42
2023-06-15T14:52:21.984Z,45.48
2023-06-15T14:54:49.180Z,43.75
2023-06-15T14:57:16.423Z,44.62
2023-06-15T14:59:43.775Z,41.02
2023-06-15T15:02:11.082Z,40.06
2023-06-15T15:04:38.530Z,40.40
2023-06-15T15:07:05.865Z,41.92
2023-06-15T15:09:33.002Z,41.76
2023-06-15T15:12:00.468Z,41.69
2023-06-15T15:14:27.581Z,41.04
2023-06-15T15:16:55.667Z,40.96
2023-06-15T15:19:23.117Z,40.19
2023-06-15T15:21:50.867Z,38.79
2023-06-15T15:24:18.261Z,39.01
2023-06-15T15:26:45.677Z,39.27
2023-06-15T15:29:13.178Z,38.30
2023-06-15T15:31:40.574Z,37.76
2023-06-15T15:34:08.026Z,38.42
2023-06-15T15:36:38.461Z,39.68
2023-06-15T15:39:05.970Z,38.00
2023-06-15T15:41:36.138Z,36.91
2023-06-15T15:44:03.393Z,34.78
2023-06-15T15:46:30.732Z,34.17
2023-06-15T15:48:57.900Z,34.64
2023-06-15T15:51:26.382Z,38.90
2023-06-15T15:53:53.571Z,45.24
2023-06-15T15:56:20.738Z,44.88
2023-06-15T15:58:47.932Z,45.88
2023-06-15T16:01:17.076Z,45.28
2023-06-15T16:03:44.525Z,46.47
2023-06-15T16:06:11.898Z,47.43
2023-06-15T16:08:39.113Z,47.17
2023-06-15T16:11:06.290Z,46.77
2023-06-15T16:13:33.504Z,46.48
2023-06-15T16:16:20.933Z,47.99
2023-06-15T16:18:49.505Z,50.38
2023-06-15T16:21:16.705Z,50.78
2023-06-15T16:23:47.141Z,52.69
2023-06-15T16:26:14.340Z,52.83
2023-06-15T16:28:41.588Z,51.98
2023-06-15T16:31:08.835Z,50.94
2023-06-15T16:33:35.990Z,53.10
2023-06-15T16:36:03.257Z,53.66
2023-06-15T16:38:30.476Z,54.80
2023-06-15T16:40:57.730Z,52.64
2023-06-15T16:43:24.792Z,51.39
2023-06-15T16:45:52.190Z,54.83
2023-06-15T16:48:19.393Z,49.90
2023-06-15T16:50:46.661Z,49.46
2023-06-15T16:53:14.041Z,51.27
2023-06-15T16:55:41.395Z,52.24
2023-06-15T16:58:08.584Z,51.72
2023-06-15T17:00:36.068Z,52.20
2023-06-15T17:03:03.941Z,50.02
2023-06-15T17:05:31.402Z,50.27
2023-06-15T17:07:58.508Z,51.01
2023-06-15T17:10:25.732Z,49.25
2023-06-15T17:12:52.843Z,47.56
2023-06-15T17:15:20.158Z,48.14
2023-06-15T17:17:47.397Z,48.51
2023-06-15T17:20:14.587Z,49.80
2023-06-15T17:22:42.274Z,48.65
2023-06-15T17:25:10.319Z,48.18
2023-06-15T17:27:37.698Z,49.53
2023-06-15T17:30:06.137Z,48.83
2023-06-15T17:32:33.942Z,49.06
2023-06-15T17:35:01.106Z,48.50
2023-06-15T17:37:28.272Z,48.84
2023-06-15T17:39:55.447Z,49.65
2023-06-15T17:42:22.569Z,48.03
2023-06-15T17:44:49.820Z,48.00
2023-06-15T17:47:16.960Z,49.19
2023-06-15T17:49:44.121Z,52.57
2023-06-15T17:52:11.308Z,53.88
2023-06-15T17:54:38.694Z,52.62
2023-06-15T17:57:06.287Z,52.19
2023-06-15T17:59:35.250Z,52.02
2023-06-15T18:02:03.843Z,52.35
2023-06-15T18:04:30.974Z,53.48
2023-06-15T18:06:58.100Z,53.02
2023-06-15T18:09:25.424Z,53.38
2023-06-15T18:11:52.554Z,54.14
2023-06-15T18:14:19.779Z,54.01
2023-06-15T18:16:46.978Z,52.71
2023-06-15T18:19:14.256Z,53.24
2023-06-15T18:21:41.769Z,51.73
2023-06-15T18:24:12.624Z,53.12
2023-06-15T18:26:48.354Z,51.75
2023-06-15T18:29:17.217Z,52.67
2023-06-15T18:31:45.257Z,52.01
2023-06-15T18:34:16.287Z,51.80
2023-06-15T18:36:43.992Z,51.61
2023-06-15T18:39:11.734Z,53.47
2023-06-15T18:41:39.370Z,54.79
2023-06-15T18:44:06.931Z,55.50
2023-06-15T18:46:34.195Z,56.15
2023-06-15T18:49:01.639Z,54.90
2023-06-15T18:51:29.001Z,56.62
2023-06-15T18:53:56.288Z,54.87
2023-06-15T18:56:23.894Z,55.04
2023-06-15T18:58:51.455Z,54.94
2023-06-15T19:01:18.711Z,55.57
2023-06-15T19:03:46.094Z,55.52
2023-06-15T19:06:13.382Z,55.87
2023-06-15T19:08:40.680Z,56.08
2023-06-15T19:11:09.959Z,56.85
2023-06-15T19:13:37.937Z,55.93
2023-06-15T19:16:06.224Z,57.65
2023-06-15T19:18:33.599Z,57.17
2023-06-15T19:21:03.276Z,56.36
2023-06-15T19:23:30.377Z,57.36
2023-06-15T19:25:57.607Z,58.64
2023-06-15T19:28:25.506Z,58.94
2023-06-15T19:30:52.627Z,57.94
2023-06-15T19:33:19.964Z,59.10
2023-06-15T19:35:47.122Z,58.70
2023-06-15T19:38:14.297Z,57.50
2023-06-15T19:40:41.487Z,55.90
2023-06-15T19:43:09.747Z,57.27
2023-06-15T19:45:36.887Z,61.74
2023-06-15T19:48:04.636Z,62.66
2023-06-15T19:50:32.041Z,63.69
2023-06-15T19:52:59.224Z,63.55
2023-06-15T19:55:26.408Z,62.38
2023-06-15T19:57:53.522Z,61.79
2023-06-15T20:00:21.853Z,61.52
2023-06-15T20:02:50.126Z,61.21
2023-06-15T20:05:17.309Z,60.16
2023-06-15T20:07:44.419Z,58.15
2023-06-15T20:10:12.286Z,57.43
2023-06-15T20:12:39.439Z,59.36
2023-06-15T20:15:07.555Z,61.01
2023-06-15T20:17:34.741Z,60.36
2023-06-15T20:20:01.966Z,58.64
2023-06-15T20:22:29.128Z,58.37
2023-06-15T20:24:57.568Z,59.55
2023-06-15T20:27:24.715Z,60.90
2023-06-15T20:29:51.805Z,60.00
2023-06-15T20:32:21.800Z,60.34
2023-06-15T20:34:48.893Z,60.06
2023-06-15T20:37:16.032Z,58.92
2023-06-15T20:39:46.323Z,60.48
2023-06-15T20:42:15.883Z,58.07
2023-06-15T20:44:43.039Z,58.32
2023-06-15T20:47:10.686Z,57.19
2023-06-15T20:49:38.210Z,56.97
2023-06-15T20:52:05.730Z,57.84
2023-06-15T20:54:35.233Z,59.72
2023-06-15T20:57:02.378Z,62.08
2023-06-15T20:59:29.636Z,62.98
2023-06-15T21:04:25.632Z,60.41
2023-06-15T21:06:55.863Z,59.73
2023-06-15T21:09:25.470Z,64.63
2023-06-15T21:11:52.716Z,63.33
2023-06-15T21:14:19.900Z,61.96
2023-06-15T21:16:47.042Z,63.94
2023-06-15T21:19:14.319Z,59.66
2023-06-15T21:21:43.027Z,63.46
2023-06-15T21:24:13.962Z,61.83
2023-06-15T21:26:41.158Z,59.96
2023-06-15T21:29:08.379Z,58.84
2023-06-15T21:31:39.269Z,61.85
2023-06-15T21:34:06.549Z,60.95
2023-06-15T21:36:33.713Z,60.11
2023-06-15T21:39:00.953Z,60.60
2023-06-15T21:41:31.217Z,60.35
2023-06-15T21:43:59.086Z,61.62
2023-06-15T21:46:26.955Z,63.21
2023-06-15T21:48:54.247Z,61.86
2023-06-15T21:51:21.550Z,60.02
2023-06-15T21:53:48.857Z,61.00
2023-06-15T21:56:16.136Z,60.00
2023-06-15T21:58:43.536Z,60.28
2023-06-15T22:01:11.160Z,64.24
2023-06-15T22:03:40.091Z,66.26
2023-06-15T22:06:10.609Z,68.53
2023-06-15T22:08:37.763Z,69.21
2023-06-15T22:11:05.278Z,68.71
2023-06-15T22:13:35.502Z,68.25
2023-06-15T22:16:02.840Z,67.88
2023-06-15T22:18:30.880Z,66.72
2023-06-15T22:20:58.763Z,66.88
2023-06-15T22:23:27.815Z,67.70
2023-06-15T22:25:56.778Z,65.68
2023-06-15T22:28:25.365Z,64.02
2023-06-15T22:30:53.037Z,62.95
2023-06-15T22:33:24.452Z,60.90
2023-06-15T22:35:52.020Z,60.82
2023-06-15T22:38:19.191Z,63.11
2023-06-15T22:40:46.581Z,64.08
2023-06-15T22:43:13.957Z,62.63
2023-06-15T22:45:41.203Z,64.03
2023-06-15T22:48:08.423Z,64.32
2023-06-15T22:50:35.643Z,66.01
2023-06-15T22:53:03.332Z,66.20
2023-06-15T22:55:31.302Z,64.26
2023-06-15T22:57:58.867Z,63.55
2023-06-15T23:00:26.172Z,64.01
2023-06-15T23:05:23.811Z,62.82
2023-06-15T23:07:52.493Z,62.16
2023-06-15T23:10:21.783Z,65.65
2023-06-15T23:12:51.461Z,65.11
2023-06-15T23:15:22.894Z,63.07
2023-06-15T23:17:53.376Z,63.47
2023-06-15T23:20:21.292Z,64.27
2023-06-15T23:22:52.991Z,64.29
2023-06-15T23:25:23.989Z,63.62
2023-06-15T23:27:55.134Z,63.69
2023-06-15T23:30:25.093Z,66.18
2023-06-15T23:32:52.290Z,67.03
2023-06-15T23:35:19.468Z,66.71
2023-06-15T23:37:46.606Z,63.89
2023-06-15T23:40:13.909Z,63.77
2023-06-15T23:42:41.042Z,65.43
2023-06-15T23:45:08.736Z,65.93
2023-06-15T23:47:35.886Z,63.21
2023-06-15T23:50:06.488Z,64.47
2023-06-15T23:52:33.592Z,64.03
2023-06-15T23:55:00.702Z,63.03
2023-06-15T23:57:27.837Z,62.23
2023-06-15T23:59:54.976Z,62.89
